sensor_id;sensor_type;location;lat;lon;timestamp;pressure;altitude;pressure_sealevel;temperature;humidity
45255;BME280;30989;52.078;21.014;2023-05-02T00:00:11;166017.00;;;8.63;61.57
45255;BME280;30989;52.078;21.014;2023-05-02T00:02:37;165998.25;;;8.56;61.96
45255;BME280;30989;52.078;21.014;2023-05-02T00:05:03;165994.25;;;8.55;61.53
45255;BME280;30989;52.078;21.014;2023-05-02T00:07:29;166002.28;;;8.58;61.66
45255;BME280;30989;52.078;21.014;2023-05-02T00:09:54;165992.91;;;8.54;61.86
45255;BME280;30989;52.078;21.014;2023-05-02T00:12:20;165987.56;;;8.52;62.00
45255;BME280;30989;52.078;21.014;2023-05-02T00:14:45;165982.22;;;8.50;62.46
45255;BME280;30989;52.078;21.014;2023-05-02T00:17:20;165960.81;;;8.42;62.45
45255;BME280;30989;52.078;21.014;2023-05-02T00:19:46;165960.81;;;8.42;62.34
45255;BME280;30989;52.078;21.014;2023-05-02T00:22:11;165963.47;;;8.43;62.97
45255;BME280;30989;52.078;21.014;2023-05-02T00:24:37;165950.09;;;8.38;62.87
45255;BME280;30989;52.078;21.014;2023-05-02T00:27:02;165948.78;;;8.37;63.04
45255;BME280;30989;52.078;21.014;2023-05-02T00:29:29;165930.00;;;8.30;62.82
45255;BME280;30989;52.078;21.014;2023-05-02T00:31:54;165936.75;;;8.33;62.98
45255;BME280;30989;52.078;21.014;2023-05-02T00:34:21;165931.34;;;8.31;62.90
45255;BME280;30989;52.078;21.014;2023-05-02T00:36:47;165927.31;;;8.29;63.29
45255;BME280;30989;52.078;21.014;2023-05-02T00:39:12;165915.28;;;8.25;63.50
45255;BME280;30989;52.078;21.014;2023-05-02T00:41:38;165921.97;;;8.27;63.81
45255;BME280;30989;52.078;21.014;2023-05-02T00:44:03;165923.31;;;8.28;63.88
45255;BME280;30989;52.078;21.014;2023-05-02T00:46:29;165923.31;;;8.28;64.15
45255;BME280;30989;52.078;21.014;2023-05-02T00:48:54;165917.97;;;8.26;64.33
45255;BME280;30989;52.078;21.014;2023-05-02T00:51:20;165893.88;;;8.17;64.14
45255;BME280;30989;52.078;21.014;2023-05-02T00:53:45;165908.59;;;8.22;64.52
45255;BME280;30989;52.078;21.014;2023-05-02T00:56:11;165905.94;;;8.21;64.47
45255;BME280;30989;52.078;21.014;2023-05-02T00:58:40;165908.59;;;8.22;64.24
45255;BME280;30989;52.078;21.014;2023-05-02T01:06:52;165888.53;;;8.15;64.71
45255;BME280;30989;52.078;21.014;2023-05-02T01:09:51;165893.88;;;8.17;65.10
45255;BME280;30989;52.078;21.014;2023-05-02T01:12:26;165864.47;;;8.05;65.06
45255;BME280;30989;52.078;21.014;2023-05-02T01:14:54;165883.19;;;8.13;65.41
45255;BME280;30989;52.078;21.014;2023-05-02T01:17:29;165879.19;;;8.11;65.72
45255;BME280;30989;52.078;21.014;2023-05-02T01:20:04;165872.50;;;8.08;65.91
45255;BME280;30989;52.078;21.014;2023-05-02T01:22:30;165856.44;;;8.02;66.27
45255;BME280;30989;52.078;21.014;2023-05-02T01:30:36;165843.06;;;7.97;66.94
45255;BME280;30989;52.078;21.014;2023-05-02T01:33:03;165835.06;;;7.94;67.31
45255;BME280;30989;52.078;21.014;2023-05-02T01:35:32;165819.00;;;7.88;67.06
45255;BME280;30989;52.078;21.014;2023-05-02T01:37:58;165816.34;;;7.87;67.90
45255;BME280;30989;52.078;21.014;2023-05-02T01:40:25;165808.31;;;7.84;67.50
45255;BME280;30989;52.078;21.014;2023-05-02T01:42:52;165800.28;;;7.81;67.45
45255;BME280;30989;52.078;21.014;2023-05-02T01:45:20;165792.28;;;7.78;68.56
45255;BME280;30989;52.078;21.014;2023-05-02T01:47:47;165777.56;;;7.72;67.97
45255;BME280;30989;52.078;21.014;2023-05-02T01:50:17;165770.88;;;7.70;68.04
45255;BME280;30989;52.078;21.014;2023-05-02T01:52:46;165761.53;;;7.66;68.31
45255;BME280;30989;52.078;21.014;2023-05-02T01:55:14;165761.53;;;7.66;68.45
45255;BME280;30989;52.078;21.014;2023-05-02T01:57:43;165760.19;;;7.66;68.68
45255;BME280;30989;52.078;21.014;2023-05-02T02:00:11;165742.81;;;7.59;68.59
45255;BME280;30989;52.078;21.014;2023-05-02T02:02:41;165752.16;;;7.63;68.63
45255;BME280;30989;52.078;21.014;2023-05-02T02:05:08;165749.50;;;7.62;69.01
45255;BME280;30989;52.078;21.014;2023-05-02T02:07:35;165749.50;;;7.62;68.89
45255;BME280;30989;52.078;21.014;2023-05-02T02:10:01;165746.81;;;7.61;69.21
45255;BME280;30989;52.078;21.014;2023-05-02T02:12:37;165746.81;;;7.61;69.57
45255;BME280;30989;52.078;21.014;2023-05-02T02:15:11;165744.16;;;7.60;69.51
45255;BME280;30989;52.078;21.014;2023-05-02T02:17:48;165733.44;;;7.56;70.22
45255;BME280;30989;52.078;21.014;2023-05-02T02:20:20;165721.44;;;7.51;69.96
45255;BME280;30989;52.078;21.014;2023-05-02T02:22:46;165734.78;;;7.56;69.99
45255;BME280;30989;52.078;21.014;2023-05-02T02:25:14;165732.13;;;7.55;69.93
45255;BME280;30989;52.078;21.014;2023-05-02T02:27:41;165722.75;;;7.52;70.56
45255;BME280;30989;52.078;21.014;2023-05-02T02:30:08;165718.75;;;7.50;69.96
45255;BME280;30989;52.078;21.014;2023-05-02T02:32:33;165704.06;;;7.44;70.91
45255;BME280;30989;52.078;21.014;2023-05-02T02:34:59;165706.72;;;7.46;70.52
45255;BME280;30989;52.078;21.014;2023-05-02T02:37:30;165704.06;;;7.44;70.94
45255;BME280;30989;52.078;21.014;2023-05-02T02:45:58;165685.34;;;7.37;70.88
45255;BME280;30989;52.078;21.014;2023-05-02T02:51:13;165680.00;;;7.35;70.89
45255;BME280;30989;52.078;21.014;2023-05-02T02:53:56;165677.31;;;7.34;72.06
45255;BME280;30989;52.078;21.014;2023-05-02T02:56:28;165670.63;;;7.32;72.07
45255;BME280;30989;52.078;21.014;2023-05-02T02:58:59;165658.59;;;7.27;71.96
45255;BME280;30989;52.078;21.014;2023-05-02T03:01:30;165655.94;;;7.26;72.18
45255;BME280;30989;52.078;21.014;2023-05-02T03:03:56;165653.25;;;7.25;71.50
45255;BME280;30989;52.078;21.014;2023-05-02T03:06:23;165641.22;;;7.21;72.58
45255;BME280;30989;52.078;21.014;2023-05-02T03:08:50;165639.91;;;7.20;72.34
45255;BME280;30989;52.078;21.014;2023-05-02T03:11:18;165645.25;;;7.22;71.94
45255;BME280;30989;52.078;21.014;2023-05-02T03:13:43;165623.84;;;7.14;72.80
45255;BME280;30989;52.078;21.014;2023-05-02T03:16:33;165642.56;;;7.21;72.97
45255;BME280;30989;52.078;21.014;2023-05-02T03:19:01;165629.19;;;7.16;72.62
45255;BME280;30989;52.078;21.014;2023-05-02T03:21:27;165629.19;;;7.16;72.40
45255;BME280;30989;52.078;21.014;2023-05-02T03:23:55;165634.53;;;7.18;72.30
45255;BME280;30989;52.078;21.014;2023-05-02T03:26:20;165630.53;;;7.17;72.29
45255;BME280;30989;52.078;21.014;2023-05-02T03:28:46;165630.53;;;7.17;72.52
45255;BME280;30989;52.078;21.014;2023-05-02T03:31:16;165623.84;;;7.14;72.40
45255;BME280;30989;52.078;21.014;2023-05-02T03:33:42;165627.88;;;7.16;72.17
45255;BME280;30989;52.078;21.014;2023-05-02T03:36:07;165634.53;;;7.18;72.73
45255;BME280;30989;52.078;21.014;2023-05-02T03:38:33;165631.88;;;7.17;72.62
45255;BME280;30989;52.078;21.014;2023-05-02T03:41:03;165625.19;;;7.15;72.69
45255;BME280;30989;52.078;21.014;2023-05-02T03:43:29;165625.19;;;7.15;73.16
45255;BME280;30989;52.078;21.014;2023-05-02T03:45:55;165629.19;;;7.16;73.09
45255;BME280;30989;52.078;21.014;2023-05-02T03:48:21;165646.56;;;7.23;73.38
45255;BME280;30989;52.078;21.014;2023-05-02T03:50:47;165645.25;;;7.22;73.10
45255;BME280;30989;52.078;21.014;2023-05-02T03:53:13;165646.56;;;7.23;73.08
45255;BME280;30989;52.078;21.014;2023-05-02T03:55:47;165629.19;;;7.16;72.80
45255;BME280;30989;52.078;21.014;2023-05-02T03:58:21;165651.91;;;7.25;72.95
45255;BME280;30989;52.078;21.014;2023-05-02T04:00:46;165667.97;;;7.31;73.21
45255;BME280;30989;52.078;21.014;2023-05-02T04:03:13;165675.97;;;7.34;73.58
45255;BME280;30989;52.078;21.014;2023-05-02T04:05:41;165685.34;;;7.37;73.06
45255;BME280;30989;52.078;21.014;2023-05-02T04:08:09;165671.97;;;7.32;73.39
45255;BME280;30989;52.078;21.014;2023-05-02T04:10:35;165701.38;;;7.43;73.37
45255;BME280;30989;52.078;21.014;2023-05-02T04:13:03;165716.06;;;7.49;73.61
45255;BME280;30989;52.078;21.014;2023-05-02T04:15:32;165725.44;;;7.53;72.69
45255;BME280;30989;52.078;21.014;2023-05-02T04:17:58;165716.06;;;7.49;73.03
45255;BME280;30989;52.078;21.014;2023-05-02T04:20:24;165746.81;;;7.61;73.14
45255;BME280;30989;52.078;21.014;2023-05-02T04:22:52;165750.84;;;7.62;73.05
45255;BME280;30989;52.078;21.014;2023-05-02T04:25:17;165774.88;;;7.71;73.12
45255;BME280;30989;52.078;21.014;2023-05-02T04:27:43;165784.25;;;7.75;73.20
45255;BME280;30989;52.078;21.014;2023-05-02T04:30:13;165780.25;;;7.73;73.14
45255;BME280;30989;52.078;21.014;2023-05-02T04:32:42;165794.94;;;7.79;72.94
45255;BME280;30989;52.078;21.014;2023-05-02T04:35:09;165836.41;;;7.95;73.17
45255;BME280;30989;52.078;21.014;2023-05-02T04:37:35;165832.38;;;7.93;72.58
45255;BME280;30989;52.078;21.014;2023-05-02T04:40:01;165867.16;;;8.06;73.07
45255;BME280;30989;52.078;21.014;2023-05-02T04:42:29;165889.88;;;8.15;72.75
45255;BME280;30989;52.078;21.014;2023-05-02T04:45:15;165909.94;;;8.23;72.26
45255;BME280;30989;52.078;21.014;2023-05-02T04:47:42;165925.97;;;8.29;72.58
45255;BME280;30989;52.078;21.014;2023-05-02T04:50:08;165928.66;;;8.30;72.33
45255;BME280;30989;52.078;21.014;2023-05-02T04:52:34;165946.09;;;8.36;72.16
45255;BME280;30989;52.078;21.014;2023-05-02T04:55:00;165942.09;;;8.35;72.52
45255;BME280;30989;52.078;21.014;2023-05-02T04:57:26;165968.84;;;8.45;72.47
45255;BME280;30989;52.078;21.014;2023-05-02T04:59:54;165967.50;;;8.45;72.00
45255;BME280;30989;52.078;21.014;2023-05-02T05:02:20;165986.22;;;8.52;72.22
45255;BME280;30989;52.078;21.014;2023-05-02T05:04:45;165991.56;;;8.54;72.08
45255;BME280;30989;52.078;21.014;2023-05-02T05:07:12;166014.31;;;8.62;72.21
45255;BME280;30989;52.078;21.014;2023-05-02T05:09:37;166023.69;;;8.66;72.10
45255;BME280;30989;52.078;21.014;2023-05-02T05:12:03;166035.72;;;8.70;72.02
45255;BME280;30989;52.078;21.014;2023-05-02T05:14:33;166078.53;;;8.87;72.28
45255;BME280;30989;52.078;21.014;2023-05-02T05:16:59;166077.19;;;8.86;71.82
45255;BME280;30989;52.078;21.014;2023-05-02T05:19:25;166142.75;;;9.11;71.69
45255;BME280;30989;52.078;21.014;2023-05-02T05:21:52;166174.88;;;9.23;71.58
45255;BME280;30989;52.078;21.014;2023-05-02T05:24:19;166209.66;;;9.36;71.33
45255;BME280;30989;52.078;21.014;2023-05-02T05:26:46;166241.78;;;9.49;71.42
45255;BME280;30989;52.078;21.014;2023-05-02T05:29:12;166267.22;;;9.58;70.87
45255;BME280;30989;52.078;21.014;2023-05-02T05:31:40;166332.81;;;9.83;70.32
45255;BME280;30989;52.078;21.014;2023-05-02T05:34:06;166375.63;;;9.99;70.28
45255;BME280;30989;52.078;21.014;2023-05-02T05:36:32;166411.78;;;10.13;69.76
45255;BME280;30989;52.078;21.014;2023-05-02T05:38:58;166460.03;;;10.31;69.23
45255;BME280;30989;52.078;21.014;2023-05-02T05:41:23;166489.56;;;10.43;68.69
45255;BME280;30989;52.078;21.014;2023-05-02T05:43:55;166537.78;;;10.61;68.87
45255;BME280;30989;52.078;21.014;2023-05-02T05:46:22;166580.63;;;10.77;69.17
45255;BME280;30989;52.078;21.014;2023-05-02T05:48:48;166632.88;;;10.97;68.20
45255;BME280;30989;52.078;21.014;2023-05-02T05:51:13;166674.41;;;11.13;67.78
45255;BME280;30989;52.078;21.014;2023-05-02T05:53:39;166691.84;;;11.19;67.53
45255;BME280;30989;52.078;21.014;2023-05-02T05:56:13;166756.16;;;11.44;67.49
45255;BME280;30989;52.078;21.014;2023-05-02T05:58:48;166809.75;;;11.64;67.08
45255;BME280;30989;52.078;21.014;2023-05-02T06:01:13;166852.69;;;11.80;66.93
45255;BME280;30989;52.078;21.014;2023-05-02T06:03:40;166884.88;;;11.92;66.76
45255;BME280;30989;52.078;21.014;2023-05-02T06:06:06;166947.88;;;12.16;66.67
45255;BME280;30989;52.078;21.014;2023-05-02T06:08:31;166981.38;;;12.29;66.01
45255;BME280;30989;52.078;21.014;2023-05-02T06:10:56;167026.97;;;12.46;65.79
45255;BME280;30989;52.078;21.014;2023-05-02T06:13:22;167072.56;;;12.64;66.10
45255;BME280;30989;52.078;21.014;2023-05-02T06:15:48;167104.75;;;12.76;65.22
45255;BME280;30989;52.078;21.014;2023-05-02T06:18:14;167146.34;;;12.91;64.95
45255;BME280;30989;52.078;21.014;2023-05-02T06:20:41;167183.88;;;13.06;63.98
45255;BME280;30989;52.078;21.014;2023-05-02T06:23:06;167217.47;;;13.18;63.90
45255;BME280;30989;52.078;21.014;2023-05-02T06:25:32;167249.69;;;13.31;64.19
45255;BME280;30989;52.078;21.014;2023-05-02T06:28:01;167291.25;;;13.46;64.02
45255;BME280;30989;52.078;21.014;2023-05-02T06:30:26;167332.88;;;13.62;63.69
45255;BME280;30989;52.078;21.014;2023-05-02T06:32:52;167357.00;;;13.71;63.69
45255;BME280;30989;52.078;21.014;2023-05-02T06:35:17;167402.66;;;13.88;62.95
45255;BME280;30989;52.078;21.014;2023-05-02T06:37:42;167437.53;;;14.02;62.50
45255;BME280;30989;52.078;21.014;2023-05-02T06:40:08;167457.66;;;14.09;62.77
45255;BME280;30989;52.078;21.014;2023-05-02T06:42:34;167488.53;;;14.21;62.80
45255;BME280;30989;52.078;21.014;2023-05-02T06:44:59;167514.03;;;14.31;62.17
45255;BME280;30989;52.078;21.014;2023-05-02T06:47:25;167534.19;;;14.38;61.99
45255;BME280;30989;52.078;21.014;2023-05-02T06:49:51;167561.09;;;14.48;61.52
45255;BME280;30989;52.078;21.014;2023-05-02T06:52:17;167591.97;;;14.60;61.16
45255;BME280;30989;52.078;21.014;2023-05-02T06:54:42;167630.91;;;14.75;61.49
45255;BME280;30989;52.078;21.014;2023-05-02T06:57:08;167660.44;;;14.86;60.32
45255;BME280;30989;52.078;21.014;2023-05-02T06:59:35;167688.66;;;14.97;59.80
45255;BME280;30989;52.078;21.014;2023-05-02T07:02:00;167671.19;;;14.90;59.59
45255;BME280;30989;52.078;21.014;2023-05-02T07:04:26;167704.75;;;15.03;59.55
45255;BME280;30989;52.078;21.014;2023-05-02T07:06:51;167703.41;;;15.02;58.75
45255;BME280;30989;52.078;21.014;2023-05-02T07:09:17;167732.97;;;15.13;58.90
45255;BME280;30989;52.078;21.014;2023-05-02T07:11:42;167762.50;;;15.25;59.17
45255;BME280;30989;52.078;21.014;2023-05-02T07:14:08;167798.78;;;15.38;58.64
45255;BME280;30989;52.078;21.014;2023-05-02T07:16:33;167841.75;;;15.55;58.93
45255;BME280;30989;52.078;21.014;2023-05-02T07:18:59;167887.53;;;15.72;58.41
45255;BME280;30989;52.078;21.014;2023-05-02T07:21:25;167945.31;;;15.94;56.65
45255;BME280;30989;52.078;21.014;2023-05-02T07:23:51;167999.06;;;16.14;55.80
45255;BME280;30989;52.078;21.014;2023-05-02T07:26:16;168038.03;;;16.29;54.84
45255;BME280;30989;52.078;21.014;2023-05-02T07:28:43;168085.09;;;16.47;55.57
45255;BME280;30989;52.078;21.014;2023-05-02T07:31:08;168142.94;;;16.68;55.06
45255;BME280;30989;52.078;21.014;2023-05-02T07:33:33;168187.28;;;16.85;53.63
45255;BME280;30989;52.078;21.014;2023-05-02T07:36:00;168220.91;;;16.98;52.60
45255;BME280;30989;52.078;21.014;2023-05-02T07:38:26;168263.94;;;17.14;49.96
45255;BME280;30989;52.078;21.014;2023-05-02T07:40:52;168302.94;;;17.29;50.45
45255;BME280;30989;52.078;21.014;2023-05-02T07:43:17;168339.22;;;17.43;50.92
45255;BME280;30989;52.078;21.014;2023-05-02T07:45:43;168368.81;;;17.54;48.84
45255;BME280;30989;52.078;21.014;2023-05-02T07:48:08;168364.78;;;17.52;48.45
45255;BME280;30989;52.078;21.014;2023-05-02T07:50:33;168370.16;;;17.54;49.76
45255;BME280;30989;52.078;21.014;2023-05-02T07:52:59;168376.91;;;17.57;48.04
45255;BME280;30989;52.078;21.014;2023-05-02T07:55:24;168394.38;;;17.63;48.99
45255;BME280;30989;52.078;21.014;2023-05-02T07:57:53;168398.41;;;17.65;48.64
45255;BME280;30989;52.078;21.014;2023-05-02T08:00:18;168414.59;;;17.71;48.68
45255;BME280;30989;52.078;21.014;2023-05-02T08:02:44;168426.72;;;17.76;48.97
45255;BME280;30989;52.078;21.014;2023-05-02T08:05:10;168440.16;;;17.81;48.86
45255;BME280;30989;52.078;21.014;2023-05-02T08:07:35;168445.53;;;17.83;49.89
45255;BME280;30989;52.078;21.014;2023-05-02T08:10:01;168492.63;;;18.00;48.85
45255;BME280;30989;52.078;21.014;2023-05-02T08:12:26;168515.50;;;18.09;49.04
45255;BME280;30989;52.078;21.014;2023-05-02T08:14:52;168528.94;;;18.14;48.88
45255;BME280;30989;52.078;21.014;2023-05-02T08:17:18;168550.47;;;18.22;48.98
45255;BME280;30989;52.078;21.014;2023-05-02T08:19:43;168551.81;;;18.23;48.37
45255;BME280;30989;52.078;21.014;2023-05-02T08:22:08;168578.72;;;18.33;48.61
45255;BME280;30989;52.078;21.014;2023-05-02T08:24:34;168574.69;;;18.31;48.41
45255;BME280;30989;52.078;21.014;2023-05-02T08:26:59;168588.16;;;18.36;48.27
45255;BME280;30989;52.078;21.014;2023-05-02T08:29:27;168585.44;;;18.35;48.58
45255;BME280;30989;52.078;21.014;2023-05-02T08:31:52;168617.75;;;18.48;49.15
45255;BME280;30989;52.078;21.014;2023-05-02T08:34:18;168646.00;;;18.58;48.70
45255;BME280;30989;52.078;21.014;2023-05-02T08:36:43;168663.56;;;18.65;48.52
45255;BME280;30989;52.078;21.014;2023-05-02T08:39:09;168701.22;;;18.79;48.61
45255;BME280;30989;52.078;21.014;2023-05-02T08:41:36;168736.22;;;18.92;48.61
45255;BME280;30989;52.078;21.014;2023-05-02T08:44:02;168769.88;;;19.05;48.56
45255;BME280;30989;52.078;21.014;2023-05-02T08:46:31;168803.53;;;19.18;47.29
45255;BME280;30989;52.078;21.014;2023-05-02T08:49:00;168795.47;;;19.15;47.22
45255;BME280;30989;52.078;21.014;2023-05-02T08:51:27;168769.88;;;19.05;47.14
45255;BME280;30989;52.078;21.014;2023-05-02T08:53:53;168788.72;;;19.12;48.13
45255;BME280;30989;52.078;21.014;2023-05-02T08:56:19;168806.22;;;19.19;48.40
45255;BME280;30989;52.078;21.014;2023-05-02T08:58:45;168833.13;;;19.29;47.44
45255;BME280;30989;52.078;21.014;2023-05-02T09:01:15;168869.50;;;19.43;48.66
45255;BME280;30989;52.078;21.014;2023-05-02T09:03:43;168893.78;;;19.52;47.65
45255;BME280;30989;52.078;21.014;2023-05-02T09:06:14;168876.22;;;19.45;46.39
45255;BME280;30989;52.078;21.014;2023-05-02T09:08:41;168862.75;;;19.40;47.03
45255;BME280;30989;52.078;21.014;2023-05-02T09:11:08;168849.31;;;19.35;47.83
45255;BME280;30989;52.078;21.014;2023-05-02T09:13:39;168860.06;;;19.39;48.44
45255;BME280;30989;52.078;21.014;2023-05-02T09:16:08;168930.13;;;19.66;47.57
45255;BME280;30989;52.078;21.014;2023-05-02T09:18:40;168970.53;;;19.81;47.41
45255;BME280;30989;52.078;21.014;2023-05-02T09:23:38;169044.59;;;20.09;46.29
45255;BME280;30989;52.078;21.014;2023-05-02T09:28:53;169129.50;;;20.41;46.38
45255;BME280;30989;52.078;21.014;2023-05-02T09:31:20;169186.06;;;20.62;46.66
45255;BME280;30989;52.078;21.014;2023-05-02T09:33:47;169210.31;;;20.71;45.56
45255;BME280;30989;52.078;21.014;2023-05-02T09:36:14;169238.66;;;20.82;43.94
45255;BME280;30989;52.078;21.014;2023-05-02T09:38:41;169245.41;;;20.84;44.84
45255;BME280;30989;52.078;21.014;2023-05-02T09:41:07;169226.50;;;20.77;44.88
45255;BME280;30989;52.078;21.014;2023-05-02T09:43:33;169173.94;;;20.57;44.55
45255;BME280;30989;52.078;21.014;2023-05-02T09:46:06;169151.06;;;20.49;45.25
45255;BME280;30989;52.078;21.014;2023-05-02T09:48:55;169136.22;;;20.43;45.11
45255;BME280;30989;52.078;21.014;2023-05-02T09:51:22;169141.63;;;20.45;45.64
45255;BME280;30989;52.078;21.014;2023-05-02T09:53:48;169167.22;;;20.55;45.57
45255;BME280;30989;52.078;21.014;2023-05-02T09:56:14;169178.00;;;20.59;45.89
45255;BME280;30989;52.078;21.014;2023-05-02T09:58:40;169218.41;;;20.74;45.91
45255;BME280;30989;52.078;21.014;2023-05-02T10:01:06;169250.78;;;20.86;45.78
45255;BME280;30989;52.078;21.014;2023-05-02T10:03:35;169240.03;;;20.82;45.71
45255;BME280;30989;52.078;21.014;2023-05-02T10:06:01;169157.78;;;20.51;46.09
45255;BME280;30989;52.078;21.014;2023-05-02T10:08:27;169129.50;;;20.41;45.89
45255;BME280;30989;52.078;21.014;2023-05-02T10:10:55;169159.13;;;20.52;46.09
45255;BME280;30989;52.078;21.014;2023-05-02T10:13:23;169180.69;;;20.60;46.54
45255;BME280;30989;52.078;21.014;2023-05-02T10:18:25;169114.63;;;20.35;47.16
45255;BME280;30989;52.078;21.014;2023-05-02T10:20:57;169035.16;;;20.05;47.76
45255;BME280;30989;52.078;21.014;2023-05-02T10:23:27;169020.34;;;20.00;47.91
45255;BME280;30989;52.078;21.014;2023-05-02T10:25:53;169001.50;;;19.92;48.58
45255;BME280;30989;52.078;21.014;2023-05-02T10:28:20;168992.06;;;19.89;48.97
45255;BME280;30989;52.078;21.014;2023-05-02T10:30:46;168975.91;;;19.83;48.93
45255;BME280;30989;52.078;21.014;2023-05-02T10:33:15;168973.22;;;19.82;49.01
45255;BME280;30989;52.078;21.014;2023-05-02T10:35:44;168973.22;;;19.82;48.87
45255;BME280;30989;52.078;21.014;2023-05-02T10:38:14;168954.38;;;19.75;48.93
45255;BME280;30989;52.078;21.014;2023-05-02T10:40:41;168905.91;;;19.56;49.46
45255;BME280;30989;52.078;21.014;2023-05-02T10:43:13;168860.06;;;19.39;49.56
45255;BME280;30989;52.078;21.014;2023-05-02T10:45:39;168841.22;;;19.32;49.78
45255;BME280;30989;52.078;21.014;2023-05-02T10:53:25;168721.41;;;18.87;51.47
45255;BME280;30989;52.078;21.014;2023-05-02T10:56:13;168701.22;;;18.79;51.41
45255;BME280;30989;52.078;21.014;2023-05-02T10:58:41;168678.34;;;18.71;51.75
45255;BME280;30989;52.078;21.014;2023-05-02T11:03:56;168639.28;;;18.56;52.27
45255;BME280;30989;52.078;21.014;2023-05-02T11:06:26;168598.91;;;18.41;53.83
45255;BME280;30989;52.078;21.014;2023-05-02T11:09:29;168563.94;;;18.27;55.16
45255;BME280;30989;52.078;21.014;2023-05-02T11:11:40;168554.50;;;18.24;55.33
45255;BME280;30989;52.078;21.014;2023-05-02T11:14:07;168561.25;;;18.26;56.33
45255;BME280;30989;52.078;21.014;2023-05-02T11:24:53;168499.34;;;18.03;56.97
45255;BME280;30989;52.078;21.014;2023-05-02T11:30:04;168390.34;;;17.62;57.84
45255;BME280;30989;52.078;21.014;2023-05-02T11:35:15;168366.13;;;17.53;59.20
45255;BME280;30989;52.078;21.014;2023-05-02T11:37:41;168409.22;;;17.69;59.38
45255;BME280;30989;52.078;21.014;2023-05-02T11:40:12;168502.03;;;18.04;59.93
45255;BME280;30989;52.078;21.014;2023-05-02T11:42:38;168592.19;;;18.38;58.58
45255;BME280;30989;52.078;21.014;2023-05-02T11:45:04;168690.47;;;18.75;58.33
45255;BME280;30989;52.078;21.014;2023-05-02T11:47:31;168752.38;;;18.98;57.67
45255;BME280;30989;52.078;21.014;2023-05-02T11:49:57;168755.06;;;18.99;57.12
45255;BME280;30989;52.078;21.014;2023-05-02T11:52:25;168729.50;;;18.90;57.14
45255;BME280;30989;52.078;21.014;2023-05-02T11:54:54;168718.72;;;18.86;57.46
45255;BME280;30989;52.078;21.014;2023-05-02T11:57:22;168726.81;;;18.89;57.04
45255;BME280;30989;52.078;21.014;2023-05-02T11:59:52;168709.31;;;18.82;57.18
45255;BME280;30989;52.078;21.014;2023-05-02T12:02:18;168663.56;;;18.65;57.40
45255;BME280;30989;52.078;21.014;2023-05-02T12:04:44;168621.78;;;18.49;57.74
45255;BME280;30989;52.078;21.014;2023-05-02T12:07:09;168574.69;;;18.31;58.09
45255;BME280;30989;52.078;21.014;2023-05-02T12:09:35;168580.06;;;18.33;58.55
45255;BME280;30989;52.078;21.014;2023-05-02T12:12:00;168562.59;;;18.27;58.71
45255;BME280;30989;52.078;21.014;2023-05-02T12:14:28;168541.06;;;18.19;59.16
45255;BME280;30989;52.078;21.014;2023-05-02T12:16:55;168566.63;;;18.28;58.84
45255;BME280;30989;52.078;21.014;2023-05-02T12:19:21;168559.88;;;18.26;58.90
45255;BME280;30989;52.078;21.014;2023-05-02T12:21:46;168530.28;;;18.15;58.83
45255;BME280;30989;52.078;21.014;2023-05-02T12:24:13;168537.03;;;18.17;58.60
45255;BME280;30989;52.078;21.014;2023-05-02T12:26:39;168519.53;;;18.11;58.74
45255;BME280;30989;52.078;21.014;2023-05-02T12:29:05;168512.81;;;18.08;58.17
45255;BME280;30989;52.078;21.014;2023-05-02T12:31:32;168570.66;;;18.30;58.17
45255;BME280;30989;52.078;21.014;2023-05-02T12:33:58;168662.22;;;18.64;57.30
45255;BME280;30989;52.078;21.014;2023-05-02T12:36:25;168825.06;;;19.26;56.16
45255;BME280;30989;52.078;21.014;2023-05-02T12:38:56;169099.81;;;20.29;55.80
45255;BME280;30989;52.078;21.014;2023-05-02T12:41:38;169461.06;;;21.66;51.35
45255;BME280;30989;52.078;21.014;2023-05-02T12:44:07;169717.28;;;22.62;48.29
45255;BME280;30989;52.078;21.014;2023-05-02T12:46:33;169863.00;;;23.17;42.81
45255;BME280;30989;52.078;21.014;2023-05-02T12:49:06;169950.69;;;23.50;43.80
45255;BME280;30989;52.078;21.014;2023-05-02T12:51:33;170062.72;;;23.92;42.98
45255;BME280;30989;52.078;21.014;2023-05-02T12:53:59;170173.44;;;24.34;40.70
45255;BME280;30989;52.078;21.014;2023-05-02T12:56:25;170208.53;;;24.47;41.19
45255;BME280;30989;52.078;21.014;2023-05-02T12:58:57;170074.88;;;23.97;41.26
45255;BME280;30989;52.078;21.014;2023-05-02T13:01:27;169844.13;;;23.10;40.83
45255;BME280;30989;52.078;21.014;2023-05-02T13:03:53;169593.22;;;22.15;41.90
45255;BME280;30989;52.078;21.014;2023-05-02T13:06:18;169364.03;;;21.29;42.98
45255;BME280;30989;52.078;21.014;2023-05-02T13:08:44;169167.22;;;20.55;44.72
45255;BME280;30989;52.078;21.014;2023-05-02T13:11:09;169012.28;;;19.96;46.01
45255;BME280;30989;52.078;21.014;2023-05-02T13:13:35;168861.41;;;19.40;46.77
45255;BME280;30989;52.078;21.014;2023-05-02T13:16:01;168755.06;;;18.99;47.53
45255;BME280;30989;52.078;21.014;2023-05-02T13:18:26;168687.78;;;18.74;47.93
45255;BME280;30989;52.078;21.014;2023-05-02T13:20:54;168621.78;;;18.49;48.10
45255;BME280;30989;52.078;21.014;2023-05-02T13:23:20;168588.16;;;18.36;49.51
45255;BME280;30989;52.078;21.014;2023-05-02T13:25:45;168547.78;;;18.21;50.53
45255;BME280;30989;52.078;21.014;2023-05-02T13:28:10;168507.44;;;18.06;50.86
45255;BME280;30989;52.078;21.014;2023-05-02T13:30:36;168475.13;;;17.94;51.40
45255;BME280;30989;52.078;21.014;2023-05-02T13:33:01;168461.69;;;17.89;51.35